Time;durP1;ratioP1;P1;durP2;ratioP2;P2;SDS_P1;SDS_P2;PMS_P1;PMS_P2;Temp;Humidity;BMP_temperature;BMP_pressure;BME280_temperature;BME280_humidity;BME280_pressure;Samples;Min_cycle;Max_cycle;Signal;HPM_P1;HPM_P2
2024/04/08 00:24:21;;;;;;;7.80;7.03;;;12.30;99.90;;;;;;4587419;30;20237;-86
2024/04/08 00:27:35;;;;;;;9.67;7.77;;;12.20;99.90;;;;;;4605687;30;20221;-84
2024/04/08 01:15:38;;;;;;;8.40;7.57;;;12.60;99.90;;;;;;4553501;30;20638;-84
2024/04/08 01:40:48;;;;;;;8.93;7.20;;;12.30;99.90;;;;;;4537661;30;20264;-84
2024/04/08 02:01:07;;;;;;;7.70;7.00;;;12.40;99.90;;;;;;4612905;30;20224;-85
2024/04/08 02:31:09;;;;;;;7.90;7.20;;;11.80;99.90;;;;;;4540513;30;20627;-86
2024/04/08 02:51:26;;;;;;;9.27;7.67;;;11.30;99.90;;;;;;4531368;30;21180;-84
2024/04/08 03:12:17;;;;;;;9.37;8.43;;;11.00;99.90;;;;;;4602210;30;20248;-86
2024/04/08 03:57:39;;;;;;;11.47;8.23;;;10.30;99.90;;;;;;4489611;30;20640;-83
2024/04/08 04:28:13;;;;;;;12.03;8.93;;;10.50;99.90;;;;;;4630619;30;20232;-83
2024/04/08 05:23:44;;;;;;;14.67;13.17;;;12.20;99.90;;;;;;4637549;29;21360;-85
2024/04/08 05:44:23;;;;;;;11.17;9.03;;;13.60;99.90;;;;;;4614569;29;20245;-82
2024/04/08 06:09:14;;;;;;;9.80;8.30;;;15.70;99.90;;;;;;4514786;30;20653;-84
2024/04/08 06:30:01;;;;;;;9.47;8.27;;;17.10;99.90;;;;;;4611519;30;20209;-83
2024/04/08 07:00:37;;;;;;;8.63;7.73;;;18.00;99.90;;;;;;4735971;29;21794;-84
2024/04/08 07:20:56;;;;;;;6.88;6.25;;;19.30;93.10;;;;;;4635781;29;20206;-84
2024/04/08 07:40:54;;;;;;;6.22;5.60;;;20.50;87.90;;;;;;4603188;30;21350;-87
2024/04/08 08:01:24;;;;;;;9.60;5.80;;;21.40;84.00;;;;;;4509852;30;20233;-84
2024/04/08 08:26:28;;;;;;;5.32;4.82;;;22.20;82.20;;;;;;4563611;30;20296;-89
2024/04/08 08:52:16;;;;;;;5.38;4.85;;;22.40;82.80;;;;;;4572633;30;20248;-85
2024/04/08 09:22:38;;;;;;;5.32;4.70;;;23.10;78.90;;;;;;4414330;31;21249;-86
2024/04/08 09:52:42;;;;;;;4.88;3.80;;;23.50;75.30;;;;;;4447159;30;20665;-82
2024/04/08 10:38:14;;;;;;;4.28;3.40;;;24.80;69.40;;;;;;4497436;30;20570;-83
2024/04/08 10:58:51;;;;;;;5.35;3.35;;;25.10;68.50;;;;;;4533994;30;20499;-83
2024/04/08 11:23:45;;;;;;;6.35;3.08;;;26.00;65.80;;;;;;4398282;30;20828;-83
2024/04/08 12:05:03;;;;;;;4.95;2.53;;;26.60;60.90;;;;;;4508234;30;20834;-82
2024/04/08 12:34:59;;;;;;;3.92;2.78;;;27.40;58.90;;;;;;4457222;30;20988;-82
2024/04/08 13:41:26;;;;;;;4.68;2.60;;;28.50;55.80;;;;;;4516895;30;20202;-81
2024/04/08 14:11:37;;;;;;;6.72;2.83;;;28.60;53.90;;;;;;4586050;30;20232;-84
2024/04/08 14:52:13;;;;;;;3.58;3.13;;;30.00;52.70;;;;;;4540295;30;20513;-84
2024/04/08 15:12:42;;;;;;;3.40;3.00;;;28.50;51.80;;;;;;4817787;29;20438;-87
2024/04/08 15:32:57;;;;;;;5.45;2.92;;;27.70;51.90;;;;;;4742100;29;20945;-86
2024/04/08 15:57:55;;;;;;;4.65;3.00;;;26.70;53.90;;;;;;4659070;30;20683;-86
2024/04/08 16:23:19;;;;;;;5.85;3.10;;;25.70;54.90;;;;;;4519989;30;20649;-85
2024/04/08 16:44:00;;;;;;;9.00;3.88;;;24.30;57.40;;;;;;4583389;30;20258;-87
2024/04/08 17:08:48;;;;;;;9.77;4.28;;;22.10;63.50;;;;;;4637829;30;20652;-85
2024/04/08 17:34:44;;;;;;;13.75;5.40;;;20.30;85.80;;;;;;4622938;30;20208;-83
2024/04/08 18:15:14;;;;;;;9.73;6.50;;;19.00;92.70;;;;;;4621257;30;20210;-84
2024/04/08 18:40:01;;;;;;;9.30;6.50;;;18.30;99.90;;;;;;4577910;30;20545;-85
2024/04/08 19:05:48;;;;;;;10.23;7.80;;;17.70;99.90;;;;;;4647984;29;20290;-86
2024/04/08 19:25:55;;;;;;;10.53;7.80;;;17.20;99.90;;;;;;4569317;30;20608;-86
2024/04/08 19:56:33;;;;;;;9.40;8.40;;;16.50;99.90;;;;;;4512175;30;20764;-84
2024/04/08 20:21:49;;;;;;;10.70;8.83;;;15.90;99.90;;;;;;4636609;30;20357;-86
2024/04/08 21:02:02;;;;;;;9.90;8.90;;;15.40;99.90;;;;;;4635215;29;20648;-84
2024/04/08 21:17:31;;;;;;;11.50;9.30;;;15.10;99.90;;;;;;4735066;29;20755;-82
2024/04/08 21:21:09;;;;;;;9.93;8.90;;;15.10;99.90;;;;;;4741415;29;20525;-85
2024/04/08 21:38:13;;;;;;;12.03;9.57;;;14.80;99.90;;;;;;4634572;30;20258;-84
2024/04/08 21:42:32;;;;;;;10.13;9.17;;;14.70;99.90;;;;;;4606377;30;20463;-86
2024/04/08 21:58:30;;;;;;;11.77;9.17;;;14.60;99.90;;;;;;4635196;30;20269;-86
2024/04/08 22:02:51;;;;;;;11.93;10.80;;;14.50;99.90;;;;;;4609472;30;20288;-84
2024/04/08 22:23:13;;;;;;;13.30;10.77;;;14.20;99.90;;;;;;4732457;29;20542;-84
2024/04/08 22:43:52;;;;;;;14.50;10.73;;;14.00;99.90;;;;;;4683831;29;20625;-83
2024/04/08 23:09:10;;;;;;;13.03;11.63;;;13.50;99.90;;;;;;4707307;29;20918;-86
2024/04/08 23:34:44;;;;;;;15.33;11.77;;;13.20;99.90;;;;;;4772385;29;20244;-84
